ダラス/フォートワース の空港の天気 - METARとTAF

ダラス・フォートワース国際空港 ( KDFW / DFW ) - アメリカ テキサス州ダラス & フォートワース
飛行場実況気象(Metar)
観測時間11/21 05:53 CST (11/21 11:53 UTC)
風向・風速南南東 4m/s
視程10km以上
天気現象
少しの雲 雲底高度 760m
全天の4割程度の雲 雲底高度 7620m
気温17.8℃
湿度93%
気圧1013.1hPa
METARKDFW 211153Z 15008KT 9SM FEW025 SCT250 18/17 A2994 RMK AO2 SLP131 70001 T01780167 10206 20178 53002
過去の天気等 Google飛行場航空写真 Wunderground天気予報

過去48時間のMETAR

飛行場予報(TAF)
発表時間: 11/21 05:40 CST (11/21 11:40 UTC)
予報対象時間: 21日6時 CST ~ 22日12時 CST
風向・風速南南東 8m/s
視程10km以上
全天の8割程度の雲 雲底高度 460m
21日7時 CST ~ 21日9時 CST に一時的に
全天の8割程度の雲 雲底高度 240m
21日10時 CST から
風向・風速南 6m/s
視程10km以上
天気現象周辺でしゅう雨
全天を覆う雲 雲底高度 760m
21日19時 CST ~ 21日23時 CST に一時的に
視程10km以上
天気現象弱いしゅう雨
全天を覆う雲 雲底高度 370m
21日23時 CST から
風向・風速北西 7m/s
視程10km以上
天気現象弱い雨 周辺で雷
全天を覆う積乱雲 雲底高度 240m
22日6時 CST から
風向・風速北北西 7m/s
視程10km以上
天気現象周辺でしゅう雨
全天の8割程度の雲 雲底高度 460m
全天を覆う雲 雲底高度 2440m
KDFW 211140Z 2112/2218 16015KT P6SM BKN015
TEMPO 2113/2115 BKN008
FM211600 18012KT P6SM VCSH OVC025
TEMPO 2201/2205 6SM -SHRA OVC012
FM220500 32013KT 6SM -RA VCTS OVC008CB
FM221200 34013KT P6SM VCSH BKN015 OVC080